Content-type: text/html


IW3GRW/3 : Contest report


Contest : Field Day Ferragosto                                    Sheet 1 of 1

Callsign: IW3GRX/3  WWL: JN65BX  Section: PORTATILE  Band: 1,3/2,3 GHz

Date.... UTC. Callsign...... RST-S-No RST-R-No BAND   WWL..... Points OWDQ REM

19990815 0732 IW3HWG         59   001 59   004 23     JN65DU       19 OWD 
19990815 0744 IW3HVB         59   002 59   005 23     JN65BN       47     
19990815 0750 IV3GAP         59   003 59   003 23     JN66OA       84  W
19990815 0759 IK2TLA/IV3     59   004 59   007 23     JN66KF       65     
19990815 0802 IW3RMR         59   005 59   007 23     JN66OC       85     
19990815 0804 IW3RMR         59   006 59   008 13     JN66OC       85
19990815 0810 IK2THZ/4       59   007 59   005 23     JN44XT      214  W  
19990815 0820 IW4CJM         59   008 59   004 23     JN63IX      228  W  
19990815 0835 IZ3ZPI         59   009 59   003 23     JN65AT       20
19990815 0856 S57NPR         59   010 59   004 23     JN65TM      128   D 
19990815 0901 IV3UT/IV3      59   011 59   007 23     JN66RC      104     
19990815 0941 IW4CJM         59   012 59   007 13     JN63IX      228
19990815 0957 IW3QAF         59   013 56   002 13     JN65TW      117 O
19990815 1002 S58J           59   014 59   008 23     JN76AC      149  W  
19990815 1004 S58J           59   015 59   001 13     JN76AC      149
19990815 1006 S53XX          59   016 59   001 13     JN76AC      149     
19990815 1024 IV3CWI         59   017 59   011 23     JN66OC       85     
19990815 1027 IV3CWI         56   018 59   002 13     JN66OC       85
19990815 1028 S51WI          59   019 59   014 13     JN75FO      186  W  
19990815 1057 S59MA/P        59   020 59   015 13     JN75AS      151     
19990815 1102 S59MA/P        59   021 59   016 23     JN75AS      151
19990815 1115 S53XX          59   022 59   005 23     JN76AC      149
19990815 1132 IK3ERQ/3       59   023 59   001 23     JN66DB       16
19990815 1142 IK2THZ/4       59   024 59   010 13     JN44XT      214
19990815 1146 IK3ERQ/3       59   025 59   004 13     JN66DB       16
19990815 1156 S53VV          59   026 59   009 13     JN65UM      134
19990815 1203 IK4DRY         59   027 59   001 23     JN64BL      167  W
19990815 1214 S53VV          59   028 59   010 23     JN65UM      134
19990815 1525 I6CTJ/6        59   029 59   008 23     JN63SO      287
19990815 1527 IW6CVN/6       59   030 59   007 23     JN63SN      292
19990815 1530 IW6DLY/6       59   031 59   006 23     JN63SN      292


*1/QSO           Page QSO-points, BANDs, WWLs and DXCCs:      4230   2   7   2




      REMARKS
      Bassa propagazione dovuta all'eccesso di umidita' (tempo nuvoloso).
      Anche la partecipazione non e` stata soddisfacente, specie al
      pomeriggio.
      Proporrei per il prossimo anno di ridurre l'intervallo di durata del
      contest al fine di facilitare coloro che operano in portatile, i quali
      difficilmente possono essere operativi dalle 9 di mattina fino alle
      19 di sera.
      _____________________________________________________________________

Callsign: IW3GRX/3  WWL: JN65BX  Section: PORTATILE  Band: 5,7/10 GHz

Date.... UTC. Callsign...... RST-S-No RST-R-No BAND   WWL..... Points OWDQ

19990815 0738 I3ZH/3         59   001 59   005 3      JN55TW       39 OWD 
19990815 0741 I3ZH/3         59   002 59   006 6      JN55TW       39
19990815 0746 IW3HVB         59   003 59   004 6      JN65BN       47 OW  
19990815 0751 IW3HVB         59   004 59   005 3      JN65BN       47
19990815 0815 IW3RMR         59   005 59   001 3      JN66OC       85  W  
19990815 0931 I4JCS/4        59   006 59   009 3      JN54JK      201  W  
19990815 1037 S51WI          59   007 59   015 3      JN75FO      186  WD 
19990815 1047 S51WI          59   008 59   016 6      JN75FO      186
19990815 1050 S59MA/P        59   009 59   013 3      JN75AS      151     
19990815 1055 S59MA/P        59   010 59   014 6      JN75AS      151
19990815 1120 I3DRE/IV3      59   011 59   004 6      JN66SE      112     
19990815 1127 I3DRE/IV3      59   012 59   009 3      JN66SE      112
19990815 1255 IK5HGY/5       59   013 59   016 6      JN54JD      230
19990815 1258 IK5HGY/5       59   014 59   017 3      JN54JD      230
19990815 1450 I6XCK/6        59   015 59   010 3      JN63QM      291  W  



*1/QSO           Page QSO-points, BANDs, WWLs and DXCCs:      2107   2   6   2